Time;durP1;ratioP1;P1;durP2;ratioP2;P2;SDS_P1;SDS_P2;PMS_P1;PMS_P2;Temp;Humidity;BMP_temperature;BMP_pressure;BME280_temperature;BME280_humidity;BME280_pressure;Samples;Min_cycle;Max_cycle;Signal;HPM_P1;HPM_P2
2022/10/07 00:00:59;;;;;;;3.58;2.58;;;;;;;17.11;57.47;100909.38;4492747;31;33786;-65
2022/10/07 00:03:27;;;;;;;4.75;2.90;;;;;;;17.03;57.45;100904.59;4499216;31;33585;-65
2022/10/07 00:05:59;;;;;;;6.32;3.30;;;;;;;16.96;57.73;100906.09;4492094;31;34408;-66
2022/10/07 00:08:27;;;;;;;11.70;3.05;;;;;;;17.02;57.64;100912.84;4496163;31;33645;-66
2022/10/07 00:10:55;;;;;;;5.22;3.55;;;;;;;16.93;57.52;100904.50;4491864;31;32557;-66
2022/10/07 00:13:23;;;;;;;3.37;2.28;;;;;;;16.95;57.11;100899.84;4491761;31;35047;-66
2022/10/07 00:15:50;;;;;;;7.15;2.35;;;;;;;16.88;57.34;100895.91;4501361;31;33730;-66
2022/10/07 00:18:18;;;;;;;10.43;3.78;;;;;;;16.85;57.52;100895.31;4500171;31;34748;-66
2022/10/07 00:20:45;;;;;;;4.40;2.92;;;;;;;16.83;57.65;100891.91;4498459;31;34881;-66
2022/10/07 00:23:13;;;;;;;7.22;2.67;;;;;;;16.82;57.79;100896.44;4496246;31;33740;-65
2022/10/07 00:25:41;;;;;;;5.68;2.85;;;;;;;16.82;57.76;100901.84;4495445;31;33266;-66
2022/10/07 00:28:08;;;;;;;7.37;4.15;;;;;;;16.76;57.85;100896.94;4500196;31;33772;-67
2022/10/07 00:30:36;;;;;;;3.37;2.15;;;;;;;16.68;58.17;100902.94;4495029;31;33580;-65
2022/10/07 00:33:04;;;;;;;4.97;2.83;;;;;;;16.61;58.40;100895.47;4500164;31;33096;-66
2022/10/07 00:35:34;;;;;;;5.57;2.78;;;;;;;16.58;58.36;100896.56;4500735;31;32053;-66
2022/10/07 00:38:02;;;;;;;6.12;2.65;;;;;;;16.55;58.37;100894.13;4501105;31;34425;-65
2022/10/07 00:40:29;;;;;;;4.85;2.72;;;;;;;16.45;59.06;100893.16;4495987;31;34917;-66
2022/10/07 00:42:58;;;;;;;6.43;3.03;;;;;;;16.46;59.11;100893.00;4492935;31;32749;-65
2022/10/07 00:45:26;;;;;;;5.93;3.15;;;;;;;16.48;59.27;100892.91;4494099;31;33193;-65
2022/10/07 00:47:53;;;;;;;5.22;2.78;;;;;;;16.57;58.93;100888.59;4499130;31;33735;-65
2022/10/07 00:50:24;;;;;;;5.47;2.70;;;;;;;16.64;58.35;100892.53;4486006;31;34144;-65
2022/10/07 00:53:00;;;;;;;5.35;2.83;;;;;;;16.60;58.32;100882.94;4490217;31;33807;-65
2022/10/07 00:55:28;;;;;;;6.75;3.37;;;;;;;16.48;58.72;100882.09;4494385;31;33405;-66
2022/10/07 00:57:59;;;;;;;6.10;4.78;;;;;;;16.25;59.52;100881.25;4496771;31;34280;-65
2022/10/07 01:00:26;;;;;;;14.68;4.20;;;;;;;16.46;58.77;100882.19;4492788;31;36282;-65
2022/10/07 01:02:54;;;;;;;4.68;3.20;;;;;;;16.48;58.58;100884.81;4496110;31;32518;-65
2022/10/07 01:05:22;;;;;;;7.40;4.62;;;;;;;16.53;58.45;100880.75;4498280;31;34761;-65
2022/10/07 01:07:49;;;;;;;4.45;3.28;;;;;;;16.54;58.46;100882.44;4499036;31;34934;-65
2022/10/07 01:10:18;;;;;;;5.10;3.33;;;;;;;16.61;58.18;100881.94;4499958;31;33276;-68
2022/10/07 01:13:13;;;;;;;6.37;5.22;;;;;;;16.55;58.37;100877.91;4487267;31;33825;-68
2022/10/07 01:15:53;;;;;;;6.72;4.25;;;;;;;16.57;58.30;100877.78;4485343;31;33956;-67
2022/10/07 01:18:31;;;;;;;6.97;3.05;;;;;;;16.55;58.22;100864.37;4492383;31;33924;-67
2022/10/07 01:21:35;;;;;;;6.68;3.40;;;;;;;16.51;58.46;100879.16;4483892;31;35441;-67
2022/10/07 01:24:32;;;;;;;7.45;4.37;;;;;;;16.62;58.16;100879.09;4486856;31;34554;-67
2022/10/07 01:27:00;;;;;;;;;;;;;;;16.60;58.45;100874.84;4497912;31;31644;-66
2022/10/07 01:29:39;;;;;;;7.30;4.12;;;;;;;16.59;58.55;100879.34;4488501;31;33928;-67
2022/10/07 01:32:23;;;;;;;6.97;3.35;;;;;;;16.62;58.43;100873.69;4499877;31;32947;-67
2022/10/07 01:34:53;;;;;;;6.55;3.10;;;;;;;16.64;58.22;100871.75;4498795;31;33924;-68
2022/10/07 01:37:21;;;;;;;7.87;3.42;;;;;;;16.47;58.00;100869.59;4491285;31;33516;-68
2022/10/07 01:39:52;;;;;;;5.70;3.55;;;;;;;16.52;57.63;100872.75;4483859;31;32828;-68
2022/10/07 01:42:20;;;;;;;3.45;2.35;;;;;;;16.48;57.68;100869.44;4487730;31;34008;-67
2022/10/07 01:44:51;;;;;;;5.10;3.10;;;;;;;16.53;57.57;100875.34;4481050;31;34020;-67
2022/10/07 01:47:19;;;;;;;4.80;3.42;;;;;;;16.45;57.63;100876.94;4483215;31;32328;-67
2022/10/07 01:49:47;;;;;;;5.55;3.08;;;;;;;16.44;57.49;100867.13;4486606;31;35432;-67
2022/10/07 01:52:30;;;;;;;8.35;3.37;;;;;;;16.47;57.34;100872.28;4498825;31;33586;-68
2022/10/07 01:55:26;;;;;;;6.10;3.17;;;;;;;16.47;57.20;100870.44;4498427;31;33134;-68
2022/10/07 01:58:10;;;;;;;5.32;3.40;;;;;;;16.41;57.43;100875.47;4485978;31;34647;-68
2022/10/07 02:00:45;;;;;;;5.07;3.70;;;;;;;16.41;57.31;100870.94;4495462;31;35413;-68
2022/10/07 02:03:14;;;;;;;;;;;;;;;16.19;57.86;100865.56;4488887;31;35041;-68
2022/10/07 02:05:52;;;;;;;6.32;3.67;;;;;;;16.33;57.21;100864.44;4490751;31;33575;-68
2022/10/07 02:08:36;;;;;;;5.97;3.53;;;;;;;16.33;57.56;100870.69;4489065;31;34340;-68
2022/10/07 02:11:21;;;;;;;4.37;3.08;;;;;;;16.30;58.10;100870.94;4491275;31;33803;-68
2022/10/07 02:14:13;;;;;;;4.47;3.30;;;;;;;16.32;58.08;100874.37;4494128;31;34989;-68
2022/10/07 02:16:55;;;;;;;6.78;3.55;;;;;;;16.29;57.86;100872.78;4485250;31;33928;-68
2022/10/07 02:19:34;;;;;;;6.57;4.05;;;;;;;16.31;57.46;100872.66;4493143;31;33389;-65
2022/10/07 02:22:02;;;;;;;3.40;2.47;;;;;;;16.08;58.08;100871.78;4496388;31;34696;-64
2022/10/07 02:24:33;;;;;;;5.95;3.92;;;;;;;16.09;57.96;100876.22;4496687;31;35254;-65
2022/10/07 02:27:05;;;;;;;5.62;2.62;;;;;;;16.13;57.59;100875.00;4494687;31;33910;-66
2022/10/07 02:29:34;;;;;;;4.68;3.22;;;;;;;16.05;57.44;100872.91;4492053;31;33187;-65
2022/10/07 02:32:06;;;;;;;8.18;3.08;;;;;;;16.10;57.48;100867.13;4491146;31;33801;-64
2022/10/07 02:34:35;;;;;;;4.60;2.80;;;;;;;16.06;57.72;100866.53;4491941;31;33654;-65
2022/10/07 02:37:13;;;;;;;19.05;4.28;;;;;;;15.96;58.20;100862.00;4488077;31;33360;-65
2022/10/07 02:39:42;;;;;;;4.15;3.00;;;;;;;16.06;57.70;100866.53;4478897;31;34336;-64
2022/10/07 02:42:16;;;;;;;3.60;3.03;;;;;;;16.07;57.43;100868.22;4488682;31;33824;-64
2022/10/07 02:45:01;;;;;;;4.45;2.53;;;;;;;16.01;57.35;100862.47;4494277;31;35206;-65
2022/10/07 02:47:34;;;;;;;3.25;2.10;;;;;;;15.94;57.29;100862.09;4492188;31;32437;-64
2022/10/07 02:50:05;;;;;;;5.72;3.17;;;;;;;15.92;57.94;100872.19;4491875;31;34321;-64
2022/10/07 02:52:33;;;;;;;7.62;3.30;;;;;;;15.92;58.03;100855.97;4494610;31;32956;-64
2022/10/07 02:55:08;;;;;;;7.10;3.75;;;;;;;15.82;58.60;100860.37;4487172;31;34091;-64
2022/10/07 02:57:39;;;;;;;5.60;3.75;;;;;;;15.81;58.66;100858.66;4485459;31;33721;-65
2022/10/07 03:00:07;;;;;;;4.60;3.42;;;;;;;15.91;58.09;100867.75;4480842;31;32617;-64
2022/10/07 03:02:43;;;;;;;9.05;3.85;;;;;;;15.88;58.13;100857.19;4492130;31;32603;-64
2022/10/07 03:05:13;;;;;;;6.50;3.80;;;;;;;15.68;58.70;100855.22;4489183;31;34130;-71
2022/10/07 03:07:40;;;;;;;5.30;3.33;;;;;;;15.68;58.24;100852.50;4489448;31;32522;-63
2022/10/07 03:10:09;;;;;;;6.32;3.70;;;;;;;15.61;58.49;100850.25;4494749;31;33768;-63
2022/10/07 03:12:37;;;;;;;4.43;2.97;;;;;;;15.80;57.91;100856.94;4482919;31;33649;-64
2022/10/07 03:15:04;;;;;;;4.65;2.53;;;;;;;15.80;57.58;100851.56;4491416;31;33836;-62
2022/10/07 03:17:32;;;;;;;4.60;2.55;;;;;;;15.56;57.70;100848.91;4481825;31;32616;-65
2022/10/07 03:20:00;;;;;;;4.85;3.45;;;;;;;15.64;57.61;100853.72;4489289;31;33434;-63
2022/10/07 03:22:28;;;;;;;3.80;2.60;;;;;;;15.67;57.91;100848.97;4494828;31;32578;-63
2022/10/07 03:24:55;;;;;;;4.15;3.20;;;;;;;15.70;58.09;100853.25;4492304;31;35253;-63
2022/10/07 03:27:24;;;;;;;6.62;3.95;;;;;;;15.53;58.55;100847.28;4493841;31;33911;-65
2022/10/07 03:29:53;;;;;;;4.50;3.12;;;;;;;15.62;58.35;100840.31;4495853;31;34176;-64
2022/10/07 03:32:21;;;;;;;6.28;3.92;;;;;;;15.65;58.07;100848.19;4498248;31;36163;-64
2022/10/07 03:34:49;;;;;;;5.10;3.40;;;;;;;15.67;57.96;100854.34;4498777;31;35807;-64
2022/10/07 03:37:17;;;;;;;7.30;4.93;;;;;;;15.60;58.15;100851.25;4494149;31;35190;-65
2022/10/07 03:39:44;;;;;;;3.58;3.08;;;;;;;15.73;57.67;100858.38;4488191;31;34614;-65
2022/10/07 03:42:12;;;;;;;5.55;4.20;;;;;;;15.77;57.69;100855.34;4489387;31;33729;-65
2022/10/07 03:44:40;;;;;;;4.78;3.42;;;;;;;15.68;58.00;100855.22;4492921;31;34042;-66
2022/10/07 03:47:07;;;;;;;5.43;3.12;;;;;;;15.45;58.35;100854.28;4496288;31;32268;-65
2022/10/07 03:49:38;;;;;;;6.70;4.97;;;;;;;15.32;58.41;100857.91;4496847;31;33197;-66
2022/10/07 03:52:06;;;;;;;5.20;3.37;;;;;;;15.50;57.75;100844.81;4495109;31;34797;-66
2022/10/07 03:54:33;;;;;;;3.58;3.03;;;;;;;15.49;57.88;100847.66;4491647;31;32931;-65
2022/10/07 03:57:48;;;;;;;6.57;3.83;;;;;;;15.53;58.05;100855.38;4495291;31;33682;-65
2022/10/07 03:59:52;;;;;;;8.60;4.18;;;;;;;15.54;58.05;100848.19;4497959;31;32139;-65
2022/10/07 04:02:23;;;;;;;5.47;3.25;;;;;;;15.60;57.74;100842.28;4488117;31;33189;-67
2022/10/07 04:04:51;;;;;;;6.53;3.62;;;;;;;15.57;57.65;100843.41;4483197;31;33057;-65
2022/10/07 04:07:22;;;;;;;2.58;2.10;;;;;;;15.68;57.18;100845.28;4493096;31;33902;-64
2022/10/07 04:09:50;;;;;;;3.42;2.58;;;;;;;15.69;57.08;100843.44;4488651;31;33176;-64
2022/10/07 04:12:18;;;;;;;7.22;3.80;;;;;;;15.67;56.96;100832.78;4498555;31;34277;-65
2022/10/07 04:14:46;;;;;;;7.93;4.20;;;;;;;15.57;56.71;100840.69;4495051;31;35240;-65
2022/10/07 04:17:17;;;;;;;5.60;3.40;;;;;;;15.54;56.45;100832.84;4496024;31;33550;-65
2022/10/07 04:19:45;;;;;;;5.20;3.05;;;;;;;15.55;56.43;100847.19;4489236;31;33357;-65
2022/10/07 04:22:12;;;;;;;4.20;2.47;;;;;;;15.56;56.29;100838.94;4493666;31;33595;-66
2022/10/07 04:24:40;;;;;;;5.57;3.50;;;;;;;15.47;56.25;100830.72;4497547;31;35202;-67
2022/10/07 04:27:07;;;;;;;4.97;3.90;;;;;;;15.50;56.29;100835.88;4483199;31;34840;-64
2022/10/07 04:29:35;;;;;;;9.75;4.03;;;;;;;15.44;56.74;100837.25;4484058;31;33179;-65
2022/10/07 04:32:06;;;;;;;6.18;3.42;;;;;;;15.42;57.15;100838.34;4496497;31;34986;-65
2022/10/07 04:34:34;;;;;;;7.82;5.12;;;;;;;15.40;57.33;100833.03;4497648;31;35501;-66
2022/10/07 04:37:02;;;;;;;6.35;5.22;;;;;;;15.30;57.69;100834.75;4495892;31;32783;-66
2022/10/07 04:39:29;;;;;;;9.75;3.65;;;;;;;15.32;57.88;100835.50;4495492;31;33477;-64
2022/10/07 04:45:04;;;;;;;4.70;3.53;;;;;;;15.39;58.03;100828.62;4484046;31;35218;-65
2022/10/07 04:47:34;;;;;;;5.70;3.50;;;;;;;15.40;58.10;100829.50;4495464;31;33651;-64
2022/10/07 04:50:02;;;;;;;6.93;4.05;;;;;;;15.44;57.61;100831.84;4492737;31;34483;-64
2022/10/07 04:52:30;;;;;;;3.62;2.67;;;;;;;15.54;57.15;100835.53;4497122;31;35102;-64
2022/10/07 04:54:58;;;;;;;7.28;3.83;;;;;;;15.54;56.73;100840.06;4496539;31;32713;-64
2022/10/07 04:57:26;;;;;;;3.85;3.00;;;;;;;15.60;56.07;100843.16;4490671;31;34376;-65
2022/10/07 04:59:54;;;;;;;4.45;2.60;;;;;;;15.56;56.03;100838.94;4486671;31;33202;-65
2022/10/07 05:02:21;;;;;;;6.93;4.28;;;;;;;15.54;55.86;100842.78;4486822;31;35006;-64
2022/10/07 05:04:49;;;;;;;6.90;3.72;;;;;;;15.51;55.79;100838.47;4498222;31;34090;-64
2022/10/07 05:07:17;;;;;;;7.72;4.12;;;;;;;15.37;56.09;100844.06;4497862;31;34885;-64
2022/10/07 05:09:45;;;;;;;4.82;3.60;;;;;;;15.35;56.09;100849.59;4494778;31;34562;-66
2022/10/07 05:12:16;;;;;;;11.07;4.05;;;;;;;15.43;55.91;100840.03;4491557;31;35005;-66
2022/10/07 05:14:45;;;;;;;14.63;3.62;;;;;;;15.21;56.70;100847.09;4493409;31;33961;-65
2022/10/07 05:17:13;;;;;;;6.65;3.47;;;;;;;15.33;56.80;100848.84;4491738;31;33929;-65
2022/10/07 05:19:41;;;;;;;5.05;3.08;;;;;;;15.38;56.71;100853.91;4490107;31;34487;-64
2022/10/07 05:22:08;;;;;;;6.30;3.72;;;;;;;15.44;56.56;100856.12;4493597;31;33811;-66
2022/10/07 05:24:36;;;;;;;7.97;3.45;;;;;;;15.40;56.72;100864.56;4497046;31;33541;-66
2022/10/07 05:27:04;;;;;;;6.18;4.15;;;;;;;15.41;57.03;100863.56;4492300;31;33838;-63
2022/10/07 05:29:31;;;;;;;4.28;3.17;;;;;;;15.46;56.78;100862.25;4496376;31;34278;-64
2022/10/07 05:31:59;;;;;;;6.03;3.92;;;;;;;15.53;56.86;100857.22;4496590;31;34019;-63
2022/10/07 05:34:31;;;;;;;8.95;3.62;;;;;;;15.58;56.45;100855.03;4497642;31;35252;-66
2022/10/07 05:36:59;;;;;;;5.72;3.67;;;;;;;15.67;56.17;100856.22;4486809;31;35182;-66
2022/10/07 05:39:26;;;;;;;4.72;3.47;;;;;;;15.70;56.18;100859.53;4486563;31;34210;-66
2022/10/07 05:41:54;;;;;;;6.90;4.00;;;;;;;15.70;56.37;100864.06;4489297;31;35004;-64
2022/10/07 05:44:22;;;;;;;6.45;4.05;;;;;;;15.51;57.33;100865.47;4488865;31;35307;-64
2022/10/07 05:46:50;;;;;;;10.20;5.75;;;;;;;15.58;57.33;100863.13;4494340;31;34120;-63
2022/10/07 05:49:18;;;;;;;10.02;4.05;;;;;;;15.56;57.36;100857.84;4495862;31;33421;-64
2022/10/07 05:51:45;;;;;;;16.45;4.15;;;;;;;15.68;57.20;100857.91;4496816;31;33804;-64
2022/10/07 05:54:13;;;;;;;4.85;4.37;;;;;;;15.92;56.89;100861.38;4485824;31;33694;-62
2022/10/07 05:56:40;;;;;;;8.43;5.22;;;;;;;16.07;56.94;100856.59;4487044;31;33826;-65
2022/10/07 05:59:09;;;;;;;5.60;3.80;;;;;;;16.25;57.04;100859.66;4486465;31;34770;-62
2022/10/07 06:01:37;;;;;;;8.27;4.60;;;;;;;16.83;55.77;100854.91;4486748;31;32275;-62
2022/10/07 06:04:06;;;;;;;6.97;4.07;;;;;;;16.86;55.96;100856.50;4486445;31;33775;-63
2022/10/07 06:06:35;;;;;;;3.70;3.22;;;;;;;16.45;57.64;100871.53;4491866;31;33656;-63
2022/10/07 06:14:37;;;;;;;7.37;4.87;;;;;;;16.69;58.18;100877.66;4491078;31;35111;-67
2022/10/07 06:17:05;;;;;;;5.97;4.18;;;;;;;16.95;57.72;100880.91;4491548;31;34082;-63
2022/10/07 06:19:35;;;;;;;19.25;5.43;;;;;;;17.07;57.43;100879.00;4486050;31;34501;-64
2022/10/07 06:22:03;;;;;;;6.57;5.32;;;;;;;17.12;57.63;100874.09;4485095;31;33718;-66
2022/10/07 06:24:32;;;;;;;9.85;5.03;;;;;;;17.18;58.13;100876.28;4489265;31;34968;-66
2022/10/07 06:27:01;;;;;;;6.75;4.32;;;;;;;17.38;57.73;100871.88;4494622;31;33606;-66
2022/10/07 06:29:29;;;;;;;6.75;4.00;;;;;;;17.49;57.61;100873.63;4485955;31;33286;-66
2022/10/07 06:31:57;;;;;;;6.25;4.82;;;;;;;17.59;57.65;100874.59;4492752;31;32503;-66
2022/10/07 06:34:25;;;;;;;7.12;5.22;;;;;;;17.66;57.58;100881.19;4496002;31;34107;-65
2022/10/07 06:36:53;;;;;;;8.77;5.85;;;;;;;17.61;58.00;100866.31;4491753;31;33898;-66
2022/10/07 06:39:21;;;;;;;8.82;6.35;;;;;;;17.69;57.69;100869.22;4497678;31;33365;-66
2022/10/07 06:41:53;;;;;;;7.22;5.18;;;;;;;17.96;56.92;100863.28;4493186;31;34593;-66
2022/10/07 06:44:22;;;;;;;9.77;5.30;;;;;;;17.99;56.80;100863.00;4482952;31;33598;-66
2022/10/07 06:46:50;;;;;;;9.75;5.90;;;;;;;18.10;56.57;100867.47;4497106;31;33762;-65
2022/10/07 06:49:19;;;;;;;11.70;7.10;;;;;;;17.84;57.12;100858.94;4493244;31;32351;-66
2022/10/07 06:51:46;;;;;;;10.93;6.47;;;;;;;18.10;56.76;100862.91;4492653;31;35929;-66
2022/10/07 06:54:14;;;;;;;8.82;7.65;;;;;;;18.27;56.30;100852.44;4492506;31;35075;-66
2022/10/07 06:56:42;;;;;;;9.52;5.87;;;;;;;18.36;56.16;100857.00;4490216;31;34318;-66
2022/10/07 06:59:10;;;;;;;13.90;8.57;;;;;;;18.28;56.39;100860.41;4489233;31;33378;-66
2022/10/07 07:01:38;;;;;;;13.15;7.43;;;;;;;18.28;56.45;100857.69;4485080;31;33662;-66
2022/10/07 07:04:05;;;;;;;9.27;6.55;;;;;;;18.38;56.43;100850.44;4474958;31;32155;-66
2022/10/07 07:06:37;;;;;;;6.20;4.60;;;;;;;18.27;56.36;100860.56;4489546;31;33672;-66
2022/10/07 07:09:06;;;;;;;8.15;6.30;;;;;;;18.31;56.02;100860.13;4486866;31;32117;-66
2022/10/07 07:11:35;;;;;;;11.63;7.47;;;;;;;18.38;56.71;100864.00;4495530;31;32412;-66
2022/10/07 07:14:04;;;;;;;7.82;6.05;;;;;;;18.50;56.66;100863.91;4495211;31;34372;-66
2022/10/07 07:16:32;;;;;;;13.65;6.47;;;;;;;18.48;56.76;100861.31;4494895;31;33609;-66
2022/10/07 07:19:02;;;;;;;14.65;7.70;;;;;;;18.26;56.98;100862.38;4494704;31;34485;-66
2022/10/07 07:21:30;;;;;;;10.90;5.93;;;;;;;18.61;56.92;100856.50;4487700;31;34655;-66
2022/10/07 07:24:00;;;;;;;8.75;6.62;;;;;;;18.70;56.39;100860.22;4489446;31;32959;-66
2022/10/07 07:26:29;;;;;;;9.80;7.28;;;;;;;18.67;56.48;100860.50;4493135;31;33927;-66
2022/10/07 07:29:02;;;;;;;12.25;6.10;;;;;;;18.56;56.20;100853.38;4495340;31;33535;-66
2022/10/07 07:31:32;;;;;;;7.87;5.53;;;;;;;18.70;54.67;100862.94;4495459;31;33424;-66
2022/10/07 07:34:02;;;;;;;9.38;6.18;;;;;;;18.43;55.95;100860.03;4484390;31;34145;-66
2022/10/07 07:36:32;;;;;;;11.05;5.00;;;;;;;18.37;56.35;100862.31;4485482;31;33259;-66
2022/10/07 07:39:05;;;;;;;9.40;6.47;;;;;;;18.34;56.41;100864.44;4493278;31;33532;-65
2022/10/07 07:41:36;;;;;;;8.20;6.68;;;;;;;18.50;56.34;100855.78;4496155;31;34741;-65
2022/10/07 07:44:04;;;;;;;9.68;6.15;;;;;;;18.21;57.24;100852.97;4482161;31;34065;-65
2022/10/07 07:46:42;;;;;;;10.27;7.00;;;;;;;18.50;56.89;100858.50;4494413;31;34047;-66
2022/10/07 07:49:11;;;;;;;9.68;6.32;;;;;;;18.44;56.86;100850.91;4484102;31;33601;-63
2022/10/07 07:51:43;;;;;;;9.30;6.30;;;;;;;18.58;56.41;100859.47;4490170;31;32721;-63
2022/10/07 07:54:12;;;;;;;8.82;6.78;;;;;;;18.77;56.22;100856.00;4488903;31;35682;-63
2022/10/07 07:56:40;;;;;;;9.85;6.32;;;;;;;19.00;55.70;100856.56;4491980;31;35020;-63
2022/10/07 07:59:09;;;;;;;12.77;6.95;;;;;;;19.14;55.56;100849.03;4491292;31;33213;-63
2022/10/07 08:01:37;;;;;;;10.95;6.68;;;;;;;19.22;55.14;100852.72;4481013;31;32805;-63
2022/10/07 08:04:06;;;;;;;9.73;6.07;;;;;;;19.27;54.53;100847.72;4490496;31;33913;-63
2022/10/07 08:06:34;;;;;;;8.23;7.00;;;;;;;19.06;55.48;100847.03;4483920;31;32344;-63
2022/10/07 08:09:02;;;;;;;10.65;7.97;;;;;;;19.36;54.84;100846.03;4483524;31;33231;-64
2022/10/07 08:11:31;;;;;;;11.18;7.00;;;;;;;19.26;54.85;100845.16;4494068;31;33777;-63
2022/10/07 08:13:59;;;;;;;10.77;6.43;;;;;;;19.44;54.29;100839.84;4493257;31;34137;-63
2022/10/07 08:16:28;;;;;;;6.95;4.82;;;;;;;19.61;54.00;100836.38;4491919;31;34987;-64
2022/10/07 08:18:57;;;;;;;14.07;5.25;;;;;;;19.64;53.62;100833.41;4489475;31;33392;-64
2022/10/07 08:21:26;;;;;;;11.35;7.70;;;;;;;19.82;53.49;100827.22;4495832;31;35883;-63
2022/10/07 08:23:57;;;;;;;11.15;6.85;;;;;;;19.62;53.43;100831.81;4491657;31;32980;-64
2022/10/07 08:26:27;;;;;;;8.98;7.20;;;;;;;19.85;53.42;100829.63;4493811;31;32719;-66
2022/10/07 08:28:56;;;;;;;9.63;5.85;;;;;;;20.01;53.75;100832.56;4495220;31;34590;-64
2022/10/07 08:31:26;;;;;;;9.13;5.70;;;;;;;19.69;53.86;100841.97;4487982;31;34060;-65
2022/10/07 08:33:57;;;;;;;8.55;6.40;;;;;;;19.53;54.29;100830.84;4496881;31;32770;-63
2022/10/07 08:36:26;;;;;;;10.00;6.72;;;;;;;19.80;52.69;100831.94;4483694;31;34077;-65
2022/10/07 08:38:54;;;;;;;7.50;4.90;;;;;;;19.96;53.05;100829.44;4491837;31;34406;-64
2022/10/07 08:41:41;;;;;;;10.77;4.60;;;;;;;19.46;53.81;100825.12;4488186;31;33671;-64
2022/10/07 08:44:12;;;;;;;9.63;5.57;;;;;;;19.70;53.55;100821.94;4474814;32;31962;-65
2022/10/07 08:47:05;;;;;;;7.97;5.78;;;;;;;19.68;53.11;100818.53;4483951;31;32705;-64
2022/10/07 08:50:03;;;;;;;10.82;5.35;;;;;;;19.43;54.04;100816.44;4487137;31;33104;-64
2022/10/07 08:52:36;;;;;;;9.45;5.97;;;;;;;19.55;53.67;100817.97;4484179;31;33776;-64
2022/10/07 08:55:25;;;;;;;6.78;3.72;;;;;;;19.64;53.13;100814.38;4492966;31;34834;-64
2022/10/07 08:58:12;;;;;;;8.38;5.90;;;;;;;20.01;53.09;100814.41;4484078;31;33836;-64
2022/10/07 09:00:47;;;;;;;13.80;4.90;;;;;;;20.26;53.11;100814.72;4488376;31;33308;-64
2022/10/07 09:03:36;;;;;;;8.45;5.37;;;;;;;20.07;52.64;100806.69;4484714;31;33342;-63
2022/10/07 09:06:08;;;;;;;11.38;7.03;;;;;;;19.26;55.14;100807.16;4488138;31;32936;-65
2022/10/07 09:08:40;;;;;;;9.75;6.60;;;;;;;19.89;53.97;100806.59;4489588;31;34068;-64
2022/10/07 09:11:14;;;;;;;11.48;7.22;;;;;;;19.85;53.16;100807.91;4484823;31;33748;-63
2022/10/07 09:13:49;;;;;;;13.80;7.43;;;;;;;19.60;53.91;100798.53;4490242;31;34051;-63
2022/10/07 09:16:27;;;;;;;11.70;7.50;;;;;;;19.66;54.32;100798.81;4492865;31;34274;-65
2022/10/07 09:18:59;;;;;;;6.18;3.87;;;;;;;19.75;53.78;100792.50;4498598;31;33954;-64
2022/10/07 09:21:49;;;;;;;12.88;5.22;;;;;;;19.51;54.77;100792.09;4491705;31;33428;-64
2022/10/07 09:24:23;;;;;;;7.85;4.03;;;;;;;19.83;53.40;100785.47;4492620;31;34946;-64
2022/10/07 09:26:54;;;;;;;10.23;6.25;;;;;;;19.95;53.81;100792.41;4492967;31;34138;-64
2022/10/07 09:29:25;;;;;;;12.13;7.43;;;;;;;20.30;53.05;100788.94;4487368;31;34908;-64
2022/10/07 09:31:53;;;;;;;8.25;6.12;;;;;;;19.82;54.07;100781.88;4498904;31;34528;-64
2022/10/07 09:34:26;;;;;;;10.45;5.85;;;;;;;20.33;52.28;100779.63;4484060;32;34648;-64
2022/10/07 09:37:13;;;;;;;13.98;9.63;;;;;;;19.48;54.44;100784.25;4492750;31;33818;-65
2022/10/07 09:39:42;;;;;;;10.40;7.28;;;;;;;19.90;54.08;100778.41;4485645;31;33821;-64
2022/10/07 09:42:28;;;;;;;12.45;9.43;;;;;;;20.37;53.14;100778.31;4492736;31;33627;-64
2022/10/07 09:44:59;;;;;;;9.70;6.18;;;;;;;20.31;52.76;100765.31;4499920;31;32897;-64
2022/10/07 09:47:39;;;;;;;11.25;7.78;;;;;;;20.30;52.64;100763.63;4485867;31;33963;-64
2022/10/07 09:50:28;;;;;;;11.25;6.40;;;;;;;20.51;53.03;100755.16;4500014;31;32570;-65
2022/10/07 09:52:56;;;;;;;12.55;5.95;;;;;;;20.88;52.14;100760.50;4488022;31;33519;-65
2022/10/07 09:55:38;;;;;;;11.25;7.80;;;;;;;21.08;52.13;100748.41;4488273;31;33713;-65
2022/10/07 09:58:25;;;;;;;12.00;9.55;;;;;;;20.95;51.33;100750.69;4492391;31;33937;-63
2022/10/07 10:00:55;;;;;;;15.20;9.32;;;;;;;20.97;51.05;100745.94;4492884;31;33774;-64
2022/10/07 10:03:31;;;;;;;12.93;7.07;;;;;;;20.84;50.82;100745.50;4491936;31;33621;-64
2022/10/07 10:06:01;;;;;;;9.07;6.70;;;;;;;21.07;50.60;100738.53;4483298;31;33122;-65
2022/10/07 10:08:32;;;;;;;13.52;9.35;;;;;;;20.94;50.79;100735.37;4497041;31;34052;-65
2022/10/07 10:11:01;;;;;;;6.80;4.78;;;;;;;20.89;51.21;100734.97;4496827;31;32933;-64
2022/10/07 10:13:37;;;;;;;14.35;6.95;;;;;;;21.00;51.10;100731.16;4493143;31;33396;-65
2022/10/07 10:16:27;;;;;;;8.38;5.07;;;;;;;20.77;52.55;100728.06;4491009;31;35580;-64
2022/10/07 10:19:03;;;;;;;14.25;6.37;;;;;;;20.86;50.58;100730.69;4491349;31;33928;-65
2022/10/07 10:21:35;;;;;;;7.40;5.00;;;;;;;21.44;50.06;100722.97;4493531;31;33789;-65
2022/10/07 10:24:11;;;;;;;8.88;5.65;;;;;;;21.41;49.04;100729.59;4498163;31;34724;-64
2022/10/07 10:27:14;;;;;;;12.45;6.75;;;;;;;21.26;50.03;100715.69;4489078;31;34773;-64
2022/10/07 10:29:54;;;;;;;22.35;5.10;;;;;;;20.95;50.17;100718.03;4488565;31;32701;-65
2022/10/07 10:32:33;;;;;;;10.30;5.05;;;;;;;21.39;49.66;100713.44;4492091;31;33598;-64
2022/10/07 10:35:22;;;;;;;7.95;5.47;;;;;;;21.24;50.29;100706.81;4485795;31;34406;-63
2022/10/07 10:37:57;;;;;;;6.60;4.00;;;;;;;21.63;49.60;100709.97;4483196;31;34199;-64
2022/10/07 10:40:34;;;;;;;;;;;;;;;21.67;49.33;100698.75;4486690;31;32655;-64
2022/10/07 10:43:24;;;;;;;7.93;5.55;;;;;;;21.58;49.30;100703.31;4484517;31;33661;-65
2022/10/07 10:45:54;;;;;;;6.43;4.07;;;;;;;21.54;48.93;100697.34;4464409;32;33030;-65
2022/10/07 10:48:37;;;;;;;6.97;3.67;;;;;;;21.61;48.33;100695.66;4466834;32;34247;-64
2022/10/07 10:51:12;;;;;;;11.65;4.87;;;;;;;21.34;49.11;100683.06;4467050;32;34087;-66
2022/10/07 10:54:37;;;;;;;6.12;3.95;;;;;;;21.69;48.33;100685.81;4466643;32;33942;-64
2022/10/07 10:57:10;;;;;;;7.00;3.67;;;;;;;21.68;48.98;100678.66;4449974;32;33396;-65
2022/10/07 11:00:00;;;;;;;8.07;4.03;;;;;;;22.32;48.36;100671.72;4447181;32;32774;-65
2022/10/07 11:02:36;;;;;;;9.07;6.07;;;;;;;22.32;47.04;100666.28;4462613;32;34030;-65
2022/10/07 11:05:05;;;;;;;6.40;3.72;;;;;;;22.40;47.10;100668.13;4466296;32;34136;-65
2022/10/07 11:07:42;;;;;;;4.75;3.30;;;;;;;22.20;48.59;100659.44;4461417;32;32098;-65
2022/10/07 11:10:34;;;;;;;7.65;4.60;;;;;;;22.52;46.23;100654.00;4461558;32;33707;-64
2022/10/07 11:13:29;;;;;;;7.00;3.65;;;;;;;21.72;48.66;100650.06;4449277;32;32830;-66
2022/10/07 11:16:07;;;;;;;6.62;5.00;;;;;;;22.33;47.75;100647.00;4462790;32;34158;-63
2022/10/07 11:18:48;;;;;;;7.43;3.85;;;;;;;21.63;48.42;100636.41;4464771;32;33601;-64
2022/10/07 11:21:22;;;;;;;8.40;4.50;;;;;;;22.26;47.38;100637.78;4463696;32;34127;-65
2022/10/07 11:24:00;;;;;;;6.93;3.67;;;;;;;22.27;47.49;100625.00;4465172;32;33772;-65
2022/10/07 11:26:43;;;;;;;7.78;4.60;;;;;;;22.45;46.70;100619.41;4465115;32;33417;-64
2022/10/07 11:29:38;;;;;;;6.75;4.72;;;;;;;22.13;47.57;100620.19;4448892;32;33303;-66
2022/10/07 11:32:12;;;;;;;10.15;5.57;;;;;;;22.28;47.86;100618.56;4462824;32;34052;-64
2022/10/07 11:34:48;;;;;;;7.20;5.03;;;;;;;22.67;45.51;100613.25;4467230;32;34017;-64
2022/10/07 11:37:20;;;;;;;8.38;5.50;;;;;;;22.24;46.88;100606.25;4464102;32;33817;-65
2022/10/07 11:39:49;;;;;;;8.40;4.87;;;;;;;22.26;47.24;100610.53;4466239;32;31939;-64
2022/10/07 11:42:27;;;;;;;10.02;5.30;;;;;;;22.43;46.29;100595.00;4464595;32;35046;-65
2022/10/07 11:45:05;;;;;;;5.78;3.75;;;;;;;22.24;46.83;100590.75;4480045;31;32930;-65
2022/10/07 11:47:39;;;;;;;6.32;3.47;;;;;;;21.83;47.33;100590.69;4489022;31;33618;-65
2022/10/07 11:50:16;;;;;;;7.40;4.22;;;;;;;22.21;46.47;100582.06;4488820;31;31554;-64
2022/10/07 11:52:46;;;;;;;7.05;3.33;;;;;;;22.43;46.64;100573.19;4485523;31;33810;-65
2022/10/07 11:55:42;;;;;;;6.78;3.15;;;;;;;22.51;46.68;100581.38;4491641;31;33960;-64
2022/10/07 11:58:23;;;;;;;5.75;3.25;;;;;;;22.49;46.32;100575.22;4488527;31;33661;-65